sensor_id;sensor_type;location;lat;lon;timestamp;pressure;altitude;pressure_sealevel;temperature;humidity
12054;BME280;5638;50.860;4.698;2023-01-08T00:00:55;99934.41;;;11.54;nan
12054;BME280;5638;50.860;4.698;2023-01-08T00:03:21;99918.56;;;11.36;nan
12054;BME280;5638;50.860;4.698;2023-01-08T00:05:47;99937.50;;;11.38;nan
12054;BME280;5638;50.860;4.698;2023-01-08T00:08:13;99912.59;;;11.34;nan
12054;BME280;5638;50.860;4.698;2023-01-08T00:10:39;99920.31;;;11.36;nan
12054;BME280;5638;50.860;4.698;2023-01-08T00:13:06;99927.81;;;11.43;nan
12054;BME280;5638;50.860;4.698;2023-01-08T00:15:33;99911.88;;;11.56;nan
12054;BME280;5638;50.860;4.698;2023-01-08T00:17:59;99920.75;;;11.48;nan
12054;BME280;5638;50.860;4.698;2023-01-08T00:20:26;99913.78;;;11.51;nan
12054;BME280;5638;50.860;4.698;2023-01-08T00:22:52;99910.28;;;11.52;nan
12054;BME280;5638;50.860;4.698;2023-01-08T00:25:19;99912.09;;;11.50;nan
12054;BME280;5638;50.860;4.698;2023-01-08T00:27:45;99903.03;;;11.61;nan
12054;BME280;5638;50.860;4.698;2023-01-08T00:30:12;99895.97;;;11.41;nan
12054;BME280;5638;50.860;4.698;2023-01-08T00:32:38;99904.09;;;11.56;nan
12054;BME280;5638;50.860;4.698;2023-01-08T00:35:04;99881.69;;;11.30;nan
12054;BME280;5638;50.860;4.698;2023-01-08T00:37:31;99903.00;;;11.36;nan
12054;BME280;5638;50.860;4.698;2023-01-08T00:39:57;99905.06;;;11.53;nan
12054;BME280;5638;50.860;4.698;2023-01-08T00:42:23;99904.00;;;11.59;nan
12054;BME280;5638;50.860;4.698;2023-01-08T00:44:49;99915.38;;;11.55;nan
12054;BME280;5638;50.860;4.698;2023-01-08T00:47:15;99894.38;;;11.37;nan
12054;BME280;5638;50.860;4.698;2023-01-08T00:49:40;99890.19;;;11.33;nan
12054;BME280;5638;50.860;4.698;2023-01-08T00:52:06;99885.72;;;11.37;nan
12054;BME280;5638;50.860;4.698;2023-01-08T00:54:32;99899.19;;;11.48;nan
12054;BME280;5638;50.860;4.698;2023-01-08T00:56:58;99898.00;;;11.58;nan
12054;BME280;5638;50.860;4.698;2023-01-08T00:59:24;99904.06;;;11.57;nan
12054;BME280;5638;50.860;4.698;2023-01-08T01:01:50;99884.94;;;11.35;nan
12054;BME280;5638;50.860;4.698;2023-01-08T01:04:19;99876.09;;;11.42;nan
12054;BME280;5638;50.860;4.698;2023-01-08T01:06:45;99882.47;;;11.57;nan
12054;BME280;5638;50.860;4.698;2023-01-08T01:09:11;99872.78;;;11.63;nan
12054;BME280;5638;50.860;4.698;2023-01-08T01:11:37;99892.91;;;11.80;nan
12054;BME280;5638;50.860;4.698;2023-01-08T01:14:03;99889.25;;;11.87;nan
12054;BME280;5638;50.860;4.698;2023-01-08T01:16:28;99882.19;;;11.91;nan
12054;BME280;5638;50.860;4.698;2023-01-08T01:18:54;99893.88;;;12.03;nan
12054;BME280;5638;50.860;4.698;2023-01-08T01:21:29;99897.72;;;12.16;nan
12054;BME280;5638;50.860;4.698;2023-01-08T01:23:58;99910.41;;;12.24;nan
12054;BME280;5638;50.860;4.698;2023-01-08T01:26:25;99908.66;;;12.24;nan
12054;BME280;5638;50.860;4.698;2023-01-08T01:28:54;99920.94;;;11.95;nan
12054;BME280;5638;50.860;4.698;2023-01-08T01:31:22;99908.88;;;11.68;nan
12054;BME280;5638;50.860;4.698;2023-01-08T01:33:49;99904.09;;;11.56;nan
12054;BME280;5638;50.860;4.698;2023-01-08T01:36:18;99913.44;;;11.35;nan
12054;BME280;5638;50.860;4.698;2023-01-08T01:38:46;99905.28;;;11.20;nan
12054;BME280;5638;50.860;4.698;2023-01-08T01:41:30;99897.00;;;10.81;nan
12054;BME280;5638;50.860;4.698;2023-01-08T01:44:39;99895.16;;;10.57;nan
12054;BME280;5638;50.860;4.698;2023-01-08T01:47:20;99880.56;;;10.84;nan
12054;BME280;5638;50.860;4.698;2023-01-08T01:52:20;99878.66;;;10.61;nan
12054;BME280;5638;50.860;4.698;2023-01-08T01:54:50;99937.53;;;10.53;nan
12054;BME280;5638;50.860;4.698;2023-01-08T01:57:17;99935.41;;;10.65;nan
12054;BME280;5638;50.860;4.698;2023-01-08T01:59:45;99915.69;;;10.63;nan
12054;BME280;5638;50.860;4.698;2023-01-08T02:02:12;99917.44;;;10.62;nan
12054;BME280;5638;50.860;4.698;2023-01-08T02:04:39;99915.13;;;10.81;nan
12054;BME280;5638;50.860;4.698;2023-01-08T02:07:26;99903.09;;;10.80;nan
12054;BME280;5638;50.860;4.698;2023-01-08T02:12:43;99887.78;;;10.13;nan
12054;BME280;5638;50.860;4.698;2023-01-08T02:15:57;99915.09;;;10.22;nan
12054;BME280;5638;50.860;4.698;2023-01-08T02:18:56;99897.28;;;10.13;nan
12054;BME280;5638;50.860;4.698;2023-01-08T02:21:49;99903.28;;;10.13;nan
12054;BME280;5638;50.860;4.698;2023-01-08T02:24:50;99882.78;;;10.38;nan
12054;BME280;5638;50.860;4.698;2023-01-08T02:27:20;99885.44;;;10.65;nan
12054;BME280;5638;50.860;4.698;2023-01-08T02:29:50;99887.72;;;10.74;nan
12054;BME280;5638;50.860;4.698;2023-01-08T02:32:22;99869.47;;;10.80;nan
12054;BME280;5638;50.860;4.698;2023-01-08T02:34:50;99857.69;;;10.70;nan
12054;BME280;5638;50.860;4.698;2023-01-08T02:37:15;99872.31;;;10.71;nan
12054;BME280;5638;50.860;4.698;2023-01-08T02:40:05;99868.91;;;10.70;nan
12054;BME280;5638;50.860;4.698;2023-01-08T02:42:58;99849.16;;;10.38;nan
12054;BME280;5638;50.860;4.698;2023-01-08T02:48:35;99851.47;;;10.47;nan
12054;BME280;5638;50.860;4.698;2023-01-08T02:51:17;99849.50;;;10.56;nan
12054;BME280;5638;50.860;4.698;2023-01-08T02:53:47;99842.66;;;10.55;nan
12054;BME280;5638;50.860;4.698;2023-01-08T02:56:27;99844.94;;;10.64;nan
12054;BME280;5638;50.860;4.698;2023-01-08T02:58:57;99836.25;;;10.66;nan
12054;BME280;5638;50.860;4.698;2023-01-08T03:01:26;99839.03;;;10.60;nan
12054;BME280;5638;50.860;4.698;2023-01-08T03:03:59;99846.25;;;10.77;nan
12054;BME280;5638;50.860;4.698;2023-01-08T03:06:29;99843.88;;;10.71;nan
12054;BME280;5638;50.860;4.698;2023-01-08T03:08:58;99844.34;;;10.84;nan
12054;BME280;5638;50.860;4.698;2023-01-08T03:11:32;99899.13;;;10.96;nan
12054;BME280;5638;50.860;4.698;2023-01-08T03:14:21;99877.06;;;11.13;nan
12054;BME280;5638;50.860;4.698;2023-01-08T03:17:09;99868.59;;;11.08;nan
12054;BME280;5638;50.860;4.698;2023-01-08T03:19:53;99881.56;;;10.78;nan
12054;BME280;5638;50.860;4.698;2023-01-08T03:22:22;99860.69;;;10.56;nan
12054;BME280;5638;50.860;4.698;2023-01-08T03:24:52;99859.94;;;10.53;nan
12054;BME280;5638;50.860;4.698;2023-01-08T03:27:27;99841.22;;;10.44;nan
12054;BME280;5638;50.860;4.698;2023-01-08T03:29:57;99844.75;;;10.42;nan
12054;BME280;5638;50.860;4.698;2023-01-08T03:32:26;99843.44;;;10.29;nan
12054;BME280;5638;50.860;4.698;2023-01-08T03:34:56;99834.66;;;10.34;nan
12054;BME280;5638;50.860;4.698;2023-01-08T03:37:34;99847.19;;;10.17;nan
12054;BME280;5638;50.860;4.698;2023-01-08T03:40:30;99841.59;;;10.32;nan
12054;BME280;5638;50.860;4.698;2023-01-08T03:42:59;99841.69;;;10.29;nan
12054;BME280;5638;50.860;4.698;2023-01-08T03:45:28;99838.72;;;10.12;nan
12054;BME280;5638;50.860;4.698;2023-01-08T03:47:57;99839.81;;;10.03;nan
12054;BME280;5638;50.860;4.698;2023-01-08T03:50:27;99825.19;;;10.04;nan
12054;BME280;5638;50.860;4.698;2023-01-08T03:52:54;99839.31;;;9.90;nan
12054;BME280;5638;50.860;4.698;2023-01-08T03:55:20;99838.66;;;9.82;nan
12054;BME280;5638;50.860;4.698;2023-01-08T03:57:46;99836.69;;;9.92;nan
12054;BME280;5638;50.860;4.698;2023-01-08T04:00:13;99830.44;;;10.01;nan
12054;BME280;5638;50.860;4.698;2023-01-08T04:02:39;99854.38;;;10.06;nan
12054;BME280;5638;50.860;4.698;2023-01-08T04:05:08;99843.50;;;10.24;nan
12054;BME280;5638;50.860;4.698;2023-01-08T04:07:34;99834.41;;;10.12;nan
12054;BME280;5638;50.860;4.698;2023-01-08T04:09:59;99846.09;;;9.94;nan
12054;BME280;5638;50.860;4.698;2023-01-08T04:12:25;99858.97;;;9.96;nan
12054;BME280;5638;50.860;4.698;2023-01-08T04:14:51;99860.47;;;10.03;nan
12054;BME280;5638;50.860;4.698;2023-01-08T04:17:17;99858.50;;;10.13;nan
12054;BME280;5638;50.860;4.698;2023-01-08T04:19:43;99856.19;;;10.04;nan
12054;BME280;5638;50.860;4.698;2023-01-08T04:22:10;99867.44;;;10.01;nan
12054;BME280;5638;50.860;4.698;2023-01-08T04:24:36;99863.13;;;10.02;nan
12054;BME280;5638;50.860;4.698;2023-01-08T04:27:02;99871.75;;;10.01;nan
12054;BME280;5638;50.860;4.698;2023-01-08T04:29:28;99843.31;;;9.69;nan
12054;BME280;5638;50.860;4.698;2023-01-08T04:31:54;99831.28;;;9.70;nan
12054;BME280;5638;50.860;4.698;2023-01-08T04:34:20;99842.28;;;9.77;nan
12054;BME280;5638;50.860;4.698;2023-01-08T04:36:46;99815.94;;;9.64;nan
12054;BME280;5638;50.860;4.698;2023-01-08T04:39:12;99830.69;;;9.91;nan
12054;BME280;5638;50.860;4.698;2023-01-08T04:41:38;99824.41;;;9.69;nan
12054;BME280;5638;50.860;4.698;2023-01-08T04:44:04;99814.19;;;9.66;nan
12054;BME280;5638;50.860;4.698;2023-01-08T04:46:30;99818.66;;;9.59;nan
12054;BME280;5638;50.860;4.698;2023-01-08T04:48:56;99830.31;;;9.74;nan
12054;BME280;5638;50.860;4.698;2023-01-08T04:51:21;99820.47;;;9.56;nan
12054;BME280;5638;50.860;4.698;2023-01-08T04:53:48;99828.06;;;9.62;nan
12054;BME280;5638;50.860;4.698;2023-01-08T04:56:14;99826.97;;;9.70;nan
12054;BME280;5638;50.860;4.698;2023-01-08T04:58:40;99821.06;;;9.65;nan
12054;BME280;5638;50.860;4.698;2023-01-08T05:01:24;99819.41;;;9.63;nan
12054;BME280;5638;50.860;4.698;2023-01-08T05:04:00;99800.84;;;9.48;nan
12054;BME280;5638;50.860;4.698;2023-01-08T05:06:29;99817.88;;;9.57;nan
12054;BME280;5638;50.860;4.698;2023-01-08T05:08:56;99812.44;;;9.34;nan
12054;BME280;5638;50.860;4.698;2023-01-08T05:11:22;99809.03;;;9.33;nan
12054;BME280;5638;50.860;4.698;2023-01-08T05:13:50;99828.19;;;9.25;nan
12054;BME280;5638;50.860;4.698;2023-01-08T05:16:17;99815.72;;;9.06;nan
12054;BME280;5638;50.860;4.698;2023-01-08T05:18:44;99809.81;;;9.01;nan
12054;BME280;5638;50.860;4.698;2023-01-08T05:21:10;99823.16;;;9.18;nan
12054;BME280;5638;50.860;4.698;2023-01-08T05:23:36;99822.53;;;9.09;nan
12054;BME280;5638;50.860;4.698;2023-01-08T05:26:05;99760.75;;;8.70;nan
12054;BME280;5638;50.860;4.698;2023-01-08T05:28:31;99798.97;;;8.88;nan
12054;BME280;5638;50.860;4.698;2023-01-08T05:30:58;99816.53;;;9.08;nan
12054;BME280;5638;50.860;4.698;2023-01-08T05:33:24;99814.69;;;9.13;nan
12054;BME280;5638;50.860;4.698;2023-01-08T05:35:50;99814.06;;;9.04;nan
12054;BME280;5638;50.860;4.698;2023-01-08T05:38:17;99798.97;;;8.88;nan
12054;BME280;5638;50.860;4.698;2023-01-08T05:40:43;99807.59;;;8.87;nan
12054;BME280;5638;50.860;4.698;2023-01-08T05:43:10;99818.47;;;8.98;nan
12054;BME280;5638;50.860;4.698;2023-01-08T05:45:37;99812.56;;;8.95;nan
12054;BME280;5638;50.860;4.698;2023-01-08T05:48:06;99817.44;;;9.06;nan
12054;BME280;5638;50.860;4.698;2023-01-08T05:50:33;99819.84;;;9.13;nan
12054;BME280;5638;50.860;4.698;2023-01-08T05:52:59;99797.75;;;9.03;nan
12054;BME280;5638;50.860;4.698;2023-01-08T05:55:25;99814.75;;;9.10;nan
12054;BME280;5638;50.860;4.698;2023-01-08T05:57:51;99818.09;;;9.14;nan
12054;BME280;5638;50.860;4.698;2023-01-08T06:00:17;99814.38;;;9.26;nan
12054;BME280;5638;50.860;4.698;2023-01-08T06:02:47;99826.75;;;9.13;nan
12054;BME280;5638;50.860;4.698;2023-01-08T06:05:13;99827.63;;;9.12;nan
12054;BME280;5638;50.860;4.698;2023-01-08T06:07:39;99821.03;;;9.00;nan
12054;BME280;5638;50.860;4.698;2023-01-08T06:10:05;99820.16;;;9.01;nan
12054;BME280;5638;50.860;4.698;2023-01-08T06:12:31;99821.88;;;9.01;nan
12054;BME280;5638;50.860;4.698;2023-01-08T06:14:57;99817.56;;;9.01;nan
12054;BME280;5638;50.860;4.698;2023-01-08T06:17:23;99817.44;;;9.06;nan
12054;BME280;5638;50.860;4.698;2023-01-08T06:19:49;99802.13;;;9.00;nan
12054;BME280;5638;50.860;4.698;2023-01-08T06:22:14;99803.41;;;8.83;nan
12054;BME280;5638;50.860;4.698;2023-01-08T06:24:40;99793.97;;;8.82;nan
12054;BME280;5638;50.860;4.698;2023-01-08T06:27:06;99800.03;;;8.80;nan
12054;BME280;5638;50.860;4.698;2023-01-08T06:29:32;99811.03;;;8.88;nan
12054;BME280;5638;50.860;4.698;2023-01-08T06:31:58;99812.88;;;8.81;nan
12054;BME280;5638;50.860;4.698;2023-01-08T06:34:24;99792.41;;;8.75;nan
12054;BME280;5638;50.860;4.698;2023-01-08T06:36:49;99805.97;;;8.83;nan
12054;BME280;5638;50.860;4.698;2023-01-08T06:39:16;99798.59;;;8.68;nan
12054;BME280;5638;50.860;4.698;2023-01-08T06:41:42;99806.25;;;8.71;nan
12054;BME280;5638;50.860;4.698;2023-01-08T06:44:08;99812.03;;;8.82;nan
12054;BME280;5638;50.860;4.698;2023-01-08T06:46:34;99796.50;;;8.84;nan
12054;BME280;5638;50.860;4.698;2023-01-08T06:49:06;99807.19;;;9.03;nan
12054;BME280;5638;50.860;4.698;2023-01-08T06:51:32;99820.81;;;9.09;nan
12054;BME280;5638;50.860;4.698;2023-01-08T06:53:58;99803.75;;;9.04;nan
12054;BME280;5638;50.860;4.698;2023-01-08T06:56:24;99808.75;;;9.10;nan
12054;BME280;5638;50.860;4.698;2023-01-08T06:58:50;99806.28;;;9.05;nan
12054;BME280;5638;50.860;4.698;2023-01-08T07:01:16;99802.22;;;8.96;nan
12054;BME280;5638;50.860;4.698;2023-01-08T07:03:42;99812.94;;;9.14;nan
12054;BME280;5638;50.860;4.698;2023-01-08T07:06:21;99812.75;;;8.87;nan
12054;BME280;5638;50.860;4.698;2023-01-08T07:08:48;99805.91;;;8.86;nan
12054;BME280;5638;50.860;4.698;2023-01-08T07:11:15;99811.06;;;8.86;nan
12054;BME280;5638;50.860;4.698;2023-01-08T07:13:41;99801.72;;;8.81;nan
12054;BME280;5638;50.860;4.698;2023-01-08T07:16:13;99801.59;;;8.87;nan
12054;BME280;5638;50.860;4.698;2023-01-08T07:18:40;99793.75;;;8.91;nan
12054;BME280;5638;50.860;4.698;2023-01-08T07:21:07;99786.13;;;8.85;nan
12054;BME280;5638;50.860;4.698;2023-01-08T07:23:34;99795.25;;;9.00;nan
12054;BME280;5638;50.860;4.698;2023-01-08T07:26:02;99775.59;;;8.94;nan
12054;BME280;5638;50.860;4.698;2023-01-08T07:28:28;99782.22;;;9.05;nan
12054;BME280;5638;50.860;4.698;2023-01-08T07:30:54;99798.38;;;9.13;nan
12054;BME280;5638;50.860;4.698;2023-01-08T07:33:20;99775.34;;;9.05;nan
12054;BME280;5638;50.860;4.698;2023-01-08T07:35:54;99771.31;;;8.93;nan
12054;BME280;5638;50.860;4.698;2023-01-08T07:38:21;99787.50;;;9.00;nan
12054;BME280;5638;50.860;4.698;2023-01-08T07:40:48;99784.75;;;9.06;nan
12054;BME280;5638;50.860;4.698;2023-01-08T07:43:14;99779.34;;;9.17;nan
12054;BME280;5638;50.860;4.698;2023-01-08T07:45:40;99731.91;;;8.88;nan
12054;BME280;5638;50.860;4.698;2023-01-08T07:48:06;99784.19;;;9.29;nan
12054;BME280;5638;50.860;4.698;2023-01-08T07:50:36;99766.13;;;9.29;nan
12054;BME280;5638;50.860;4.698;2023-01-08T07:53:03;99773.03;;;9.29;nan
12054;BME280;5638;50.860;4.698;2023-01-08T07:55:30;99774.50;;;9.37;nan
12054;BME280;5638;50.860;4.698;2023-01-08T07:57:56;99766.38;;;9.18;nan
12054;BME280;5638;50.860;4.698;2023-01-08T08:00:22;99760.31;;;9.21;nan
12054;BME280;5638;50.860;4.698;2023-01-08T08:02:48;99765.75;;;9.43;nan
12054;BME280;5638;50.860;4.698;2023-01-08T08:05:14;99733.03;;;9.11;nan
12054;BME280;5638;50.860;4.698;2023-01-08T08:07:39;99768.56;;;9.34;nan
12054;BME280;5638;50.860;4.698;2023-01-08T08:10:06;99787.31;;;9.40;nan
12054;BME280;5638;50.860;4.698;2023-01-08T08:12:32;99788.59;;;9.57;nan
12054;BME280;5638;50.860;4.698;2023-01-08T08:14:57;99782.59;;;9.56;nan
12054;BME280;5638;50.860;4.698;2023-01-08T08:17:23;99784.28;;;9.57;nan
12054;BME280;5638;50.860;4.698;2023-01-08T08:19:51;99789.22;;;9.65;nan
12054;BME280;5638;50.860;4.698;2023-01-08T08:22:17;99772.00;;;9.65;nan
12054;BME280;5638;50.860;4.698;2023-01-08T08:24:43;99769.47;;;9.64;nan
12054;BME280;5638;50.860;4.698;2023-01-08T08:27:08;99776.31;;;9.94;nan
12054;BME280;5638;50.860;4.698;2023-01-08T08:29:34;99758.44;;;9.88;nan
12054;BME280;5638;50.860;4.698;2023-01-08T08:32:00;99767.88;;;9.89;nan
12054;BME280;5638;50.860;4.698;2023-01-08T08:34:26;99769.56;;;9.90;nan
12054;BME280;5638;50.860;4.698;2023-01-08T08:36:52;99749.84;;;9.88;nan
12054;BME280;5638;50.860;4.698;2023-01-08T08:39:17;99746.16;;;9.96;nan
12054;BME280;5638;50.860;4.698;2023-01-08T08:41:43;99692.75;;;9.67;nan
12054;BME280;5638;50.860;4.698;2023-01-08T08:44:09;99751.22;;;10.00;nan
12054;BME280;5638;50.860;4.698;2023-01-08T08:46:35;99746.41;;;9.87;nan
12054;BME280;5638;50.860;4.698;2023-01-08T08:49:01;99743.69;;;9.92;nan
12054;BME280;5638;50.860;4.698;2023-01-08T08:51:27;99728.72;;;9.73;nan
12054;BME280;5638;50.860;4.698;2023-01-08T08:53:53;99730.50;;;9.71;nan
12054;BME280;5638;50.860;4.698;2023-01-08T08:56:18;99699.69;;;9.36;nan
12054;BME280;5638;50.860;4.698;2023-01-08T08:58:44;99738.56;;;9.61;nan
12054;BME280;5638;50.860;4.698;2023-01-08T09:01:10;99742.66;;;9.68;nan
12054;BME280;5638;50.860;4.698;2023-01-08T09:03:37;99735.97;;;9.61;nan
12054;BME280;5638;50.860;4.698;2023-01-08T09:06:03;99728.47;;;9.53;nan
12054;BME280;5638;50.860;4.698;2023-01-08T09:08:29;99730.09;;;9.56;nan
12054;BME280;5638;50.860;4.698;2023-01-08T09:10:55;99735.81;;;9.36;nan
12054;BME280;5638;50.860;4.698;2023-01-08T09:13:21;99725.47;;;9.36;nan
12054;BME280;5638;50.860;4.698;2023-01-08T09:15:47;99716.25;;;9.27;nan
12054;BME280;5638;50.860;4.698;2023-01-08T09:18:13;99682.91;;;9.21;nan
12054;BME280;5638;50.860;4.698;2023-01-08T09:20:38;99718.06;;;9.23;nan
12054;BME280;5638;50.860;4.698;2023-01-08T09:23:04;99719.03;;;9.21;nan
12054;BME280;5638;50.860;4.698;2023-01-08T09:25:31;99729.00;;;9.33;nan
12054;BME280;5638;50.860;4.698;2023-01-08T09:28:02;99714.16;;;9.41;nan
12054;BME280;5638;50.860;4.698;2023-01-08T09:30:28;99724.16;;;9.52;nan
12054;BME280;5638;50.860;4.698;2023-01-08T09:33:00;99723.34;;;9.52;nan
12054;BME280;5638;50.860;4.698;2023-01-08T09:35:27;99731.84;;;9.55;nan
12054;BME280;5638;50.860;4.698;2023-01-08T09:37:54;99724.09;;;9.55;nan
12054;BME280;5638;50.860;4.698;2023-01-08T09:40:31;99714.44;;;9.62;nan
12054;BME280;5638;50.860;4.698;2023-01-08T09:43:00;99724.66;;;9.94;nan
12054;BME280;5638;50.860;4.698;2023-01-08T09:45:33;99705.00;;;10.46;nan
12054;BME280;5638;50.860;4.698;2023-01-08T09:48:05;99710.78;;;11.77;nan
12054;BME280;5638;50.860;4.698;2023-01-08T09:50:33;99713.16;;;12.28;nan
12054;BME280;5638;50.860;4.698;2023-01-08T09:53:00;99709.97;;;12.64;nan
12054;BME280;5638;50.860;4.698;2023-01-08T09:55:32;99705.56;;;12.86;nan
12054;BME280;5638;50.860;4.698;2023-01-08T09:57:59;99700.69;;;13.19;nan
12054;BME280;5638;50.860;4.698;2023-01-08T10:00:30;99687.78;;;13.57;nan
12054;BME280;5638;50.860;4.698;2023-01-08T10:02:58;99694.47;;;14.01;nan
12054;BME280;5638;50.860;4.698;2023-01-08T10:05:26;99699.00;;;13.95;nan
12054;BME280;5638;50.860;4.698;2023-01-08T10:07:53;99696.66;;;14.27;nan
12054;BME280;5638;50.860;4.698;2023-01-08T10:10:28;99695.13;;;14.77;nan
12054;BME280;5638;50.860;4.698;2023-01-08T10:12:55;99687.59;;;14.17;nan
12054;BME280;5638;50.860;4.698;2023-01-08T10:15:22;99688.38;;;14.00;nan
12054;BME280;5638;50.860;4.698;2023-01-08T10:18:01;99681.47;;;14.01;nan
12054;BME280;5638;50.860;4.698;2023-01-08T10:20:28;99695.47;;;13.01;nan
12054;BME280;5638;50.860;4.698;2023-01-08T10:22:55;99704.22;;;12.78;nan
12054;BME280;5638;50.860;4.698;2023-01-08T10:25:26;99688.31;;;12.65;nan
12054;BME280;5638;50.860;4.698;2023-01-08T10:28:00;99691.03;;;11.98;nan
12054;BME280;5638;50.860;4.698;2023-01-08T10:33:02;99679.63;;;12.02;nan
12054;BME280;5638;50.860;4.698;2023-01-08T10:35:41;99693.22;;;11.61;nan
12054;BME280;5638;50.860;4.698;2023-01-08T10:38:32;99694.53;;;11.50;nan
12054;BME280;5638;50.860;4.698;2023-01-08T10:41:02;99691.00;;;11.29;nan
12054;BME280;5638;50.860;4.698;2023-01-08T10:43:36;99677.94;;;11.77;nan
12054;BME280;5638;50.860;4.698;2023-01-08T10:46:24;99683.50;;;12.13;nan
12054;BME280;5638;50.860;4.698;2023-01-08T10:48:59;99681.84;;;12.55;nan
12054;BME280;5638;50.860;4.698;2023-01-08T10:51:29;99673.44;;;12.48;nan
12054;BME280;5638;50.860;4.698;2023-01-08T10:54:12;99667.31;;;12.29;nan
12054;BME280;5638;50.860;4.698;2023-01-08T10:56:42;99662.75;;;12.56;nan
12054;BME280;5638;50.860;4.698;2023-01-08T10:59:22;99666.72;;;12.22;nan
12054;BME280;5638;50.860;4.698;2023-01-08T11:01:53;99660.41;;;11.85;nan
12054;BME280;5638;50.860;4.698;2023-01-08T11:04:34;99648.34;;;11.84;nan
12054;BME280;5638;50.860;4.698;2023-01-08T11:07:04;99646.78;;;11.79;nan
12054;BME280;5638;50.860;4.698;2023-01-08T11:09:45;99647.13;;;12.15;nan
12054;BME280;5638;50.860;4.698;2023-01-08T11:12:35;99652.53;;;12.31;nan
12054;BME280;5638;50.860;4.698;2023-01-08T11:17:43;99649.25;;;12.48;nan
12054;BME280;5638;50.860;4.698;2023-01-08T11:22:45;99675.81;;;12.32;nan
12054;BME280;5638;50.860;4.698;2023-01-08T11:25:25;99658.41;;;12.14;nan
12054;BME280;5638;50.860;4.698;2023-01-08T11:27:54;99653.72;;;12.02;nan
12054;BME280;5638;50.860;4.698;2023-01-08T11:30:25;99641.69;;;12.84;nan
12054;BME280;5638;50.860;4.698;2023-01-08T11:33:04;99635.59;;;13.04;nan
12054;BME280;5638;50.860;4.698;2023-01-08T11:35:40;99629.28;;;12.29;nan
12054;BME280;5638;50.860;4.698;2023-01-08T11:38:11;99638.78;;;12.08;nan
12054;BME280;5638;50.860;4.698;2023-01-08T11:40:52;99621.63;;;12.26;nan
12054;BME280;5638;50.860;4.698;2023-01-08T11:43:51;99620.09;;;12.83;nan
12054;BME280;5638;50.860;4.698;2023-01-08T11:46:34;99619.72;;;13.49;nan
12054;BME280;5638;50.860;4.698;2023-01-08T11:49:41;99623.53;;;13.61;nan
12054;BME280;5638;50.860;4.698;2023-01-08T11:52:36;99624.66;;;13.16;nan
12054;BME280;5638;50.860;4.698;2023-01-08T11:59:12;99621.00;;;12.19;nan
12054;BME280;5638;50.860;4.698;2023-01-08T12:02:08;99619.06;;;12.25;nan
12054;BME280;5638;50.860;4.698;2023-01-08T12:05:20;99601.72;;;11.61;nan
12054;BME280;5638;50.860;4.698;2023-01-08T12:08:04;99592.00;;;11.89;nan
12054;BME280;5638;50.860;4.698;2023-01-08T12:13:53;99593.72;;;13.11;nan
12054;BME280;5638;50.860;4.698;2023-01-08T12:20:27;99583.09;;;12.58;nan
12054;BME280;5638;50.860;4.698;2023-01-08T12:34:15;99579.25;;;13.62;nan
12054;BME280;5638;50.860;4.698;2023-01-08T12:36:48;99577.47;;;13.45;nan
12054;BME280;5638;50.860;4.698;2023-01-08T12:39:25;99574.44;;;12.78;nan
12054;BME280;5638;50.860;4.698;2023-01-08T12:41:59;99571.50;;;12.26;nan
12054;BME280;5638;50.860;4.698;2023-01-08T12:44:31;99572.28;;;12.28;nan
12054;BME280;5638;50.860;4.698;2023-01-08T12:46:59;99571.03;;;12.16;nan
12054;BME280;5638;50.860;4.698;2023-01-08T12:49:49;99570.34;;;11.90;nan
12054;BME280;5638;50.860;4.698;2023-01-08T12:53:00;99563.75;;;11.83;nan
12054;BME280;5638;50.860;4.698;2023-01-08T13:03:45;99538.22;;;11.94;nan
12054;BME280;5638;50.860;4.698;2023-01-08T13:06:16;99553.97;;;11.68;nan
12054;BME280;5638;50.860;4.698;2023-01-08T13:08:55;99537.56;;;11.67;nan
12054;BME280;5638;50.860;4.698;2023-01-08T13:11:33;99524.09;;;11.59;nan
12054;BME280;5638;50.860;4.698;2023-01-08T13:14:10;99518.44;;;11.50;nan
12054;BME280;5638;50.860;4.698;2023-01-08T13:16:40;99518.53;;;11.46;nan
12054;BME280;5638;50.860;4.698;2023-01-08T13:19:23;99515.16;;;11.44;nan
12054;BME280;5638;50.860;4.698;2023-01-08T13:21:59;99502.16;;;11.68;nan
12054;BME280;5638;50.860;4.698;2023-01-08T13:24:38;99507.75;;;11.79;nan
12054;BME280;5638;50.860;4.698;2023-01-08T13:27:31;99484.84;;;12.11;nan
12054;BME280;5638;50.860;4.698;2023-01-08T13:29:57;99478.47;;;12.38;nan
12054;BME280;5638;50.860;4.698;2023-01-08T13:32:45;99465.38;;;12.60;nan
12054;BME280;5638;50.860;4.698;2023-01-08T13:37:47;99471.88;;;13.44;nan
12054;BME280;5638;50.860;4.698;2023-01-08T13:40:53;99470.34;;;13.21;nan
12054;BME280;5638;50.860;4.698;2023-01-08T13:43:28;99477.75;;;13.48;nan
12054;BME280;5638;50.860;4.698;2023-01-08T13:49:08;99464.78;;;13.48;nan
12054;BME280;5638;50.860;4.698;2023-01-08T13:51:45;99455.09;;;12.96;nan
12054;BME280;5638;50.860;4.698;2023-01-08T13:56:43;99450.50;;;13.02;nan
12054;BME280;5638;50.860;4.698;2023-01-08T14:01:54;99437.56;;;12.64;nan
12054;BME280;5638;50.860;4.698;2023-01-08T14:04:23;99441.28;;;12.58;nan
12054;BME280;5638;50.860;4.698;2023-01-08T14:06:50;99405.84;;;12.38;nan
12054;BME280;5638;50.860;4.698;2023-01-08T14:09:22;99414.97;;;12.66;nan
12054;BME280;5638;50.860;4.698;2023-01-08T14:11:52;99413.97;;;12.50;nan
12054;BME280;5638;50.860;4.698;2023-01-08T14:14:22;99417.34;;;12.52;nan
12054;BME280;5638;50.860;4.698;2023-01-08T14:16:51;99413.47;;;12.41;nan
12054;BME280;5638;50.860;4.698;2023-01-08T14:19:21;99415.72;;;12.30;nan
12054;BME280;5638;50.860;4.698;2023-01-08T14:22:23;99407.56;;;12.19;nan
12054;BME280;5638;50.860;4.698;2023-01-08T14:24:55;99413.50;;;12.02;nan
12054;BME280;5638;50.860;4.698;2023-01-08T14:27:26;99401.28;;;11.85;nan
12054;BME280;5638;50.860;4.698;2023-01-08T14:29:53;99398.47;;;11.90;nan
12054;BME280;5638;50.860;4.698;2023-01-08T14:32:23;99406.44;;;12.25;nan
12054;BME280;5638;50.860;4.698;2023-01-08T14:34:52;99401.44;;;12.59;nan
12054;BME280;5638;50.860;4.698;2023-01-08T14:37:19;99389.97;;;12.82;nan
12054;BME280;5638;50.860;4.698;2023-01-08T14:39:46;99397.75;;;13.37;nan
12054;BME280;5638;50.860;4.698;2023-01-08T14:42:34;99396.63;;;13.60;nan
12054;BME280;5638;50.860;4.698;2023-01-08T14:45:26;99386.97;;;13.62;nan
12054;BME280;5638;50.860;4.698;2023-01-08T14:48:00;99384.16;;;13.67;nan
12054;BME280;5638;50.860;4.698;2023-01-08T14:50:35;99399.34;;;13.75;nan
12054;BME280;5638;50.860;4.698;2023-01-08T14:53:43;99389.38;;;13.67;nan
12054;BME280;5638;50.860;4.698;2023-01-08T14:56:17;99380.25;;;13.58;nan